Time;durP1;ratioP1;P1;durP2;ratioP2;P2;SDS_P1;SDS_P2;PMS_P1;PMS_P2;Temp;Humidity;BMP_temperature;BMP_pressure;BME280_temperature;BME280_humidity;BME280_pressure;Samples;Min_cycle;Max_cycle;Signal;HPM_P1;HPM_P2
2024/01/28 18:12:14;;;;;;;4.13;2.03;;;;;;;10.91;100.00;101241.16;5036592;27;20402;-48
2024/01/28 18:14:40;;;;;;;3.58;1.60;;;;;;;11.06;100.00;101238.59;5041080;28;20064;-47
2024/01/28 18:17:05;;;;;;;5.10;1.20;;;;;;;11.23;100.00;101243.78;5025742;28;20073;-48
2024/01/28 18:19:30;;;;;;;10.05;4.13;;;;;;;11.38;100.00;101246.50;5018161;28;20025;-45
2024/01/28 18:21:56;;;;;;;7.78;2.85;;;;;;;11.38;100.00;101252.63;5040141;28;20538;-49
2024/01/28 18:24:21;;;;;;;12.82;3.10;;;;;;;11.38;100.00;101254.47;5037952;28;20074;-46
2024/01/28 18:26:47;;;;;;;17.50;5.68;;;;;;;11.34;100.00;101264.63;5033612;28;20044;-47
2024/01/28 18:29:13;;;;;;;13.70;4.57;;;;;;;11.46;100.00;101263.22;5041013;28;20028;-44
2024/01/28 18:31:40;;;;;;;11.65;2.75;;;;;;;11.49;100.00;101256.75;5023718;28;20116;-48
2024/01/28 18:34:06;;;;;;;6.80;2.42;;;;;;;11.79;100.00;101247.00;5029579;28;20067;-45
2024/01/28 18:36:32;;;;;;;5.65;2.40;;;;;;;11.95;100.00;101243.38;5015245;28;20033;-48
2024/01/28 18:39:01;;;;;;;4.78;2.20;;;;;;;11.97;100.00;101239.53;5031397;28;20033;-51
2024/01/28 18:41:26;;;;;;;8.50;2.70;;;;;;;12.11;100.00;101251.22;5032737;28;20087;-45
2024/01/28 18:43:53;;;;;;;10.00;2.33;;;;;;;12.18;100.00;101253.94;5028365;28;20493;-46
2024/01/28 18:46:18;;;;;;;10.07;2.78;;;;;;;12.11;100.00;101250.41;5014835;28;20550;-47
2024/01/28 18:48:43;;;;;;;9.40;2.45;;;;;;;12.15;100.00;101243.69;5025484;28;20029;-46
2024/01/28 18:51:09;;;;;;;10.02;2.30;;;;;;;12.16;100.00;101245.34;5015790;28;20451;-46
2024/01/28 18:53:35;;;;;;;8.15;2.88;;;;;;;12.14;100.00;101255.34;5033523;28;20037;-46
2024/01/28 18:56:01;;;;;;;9.68;2.92;;;;;;;12.29;100.00;101252.66;5032710;28;20030;-45
2024/01/28 18:58:26;;;;;;;8.45;2.72;;;;;;;12.33;100.00;101245.97;5043527;28;20486;-45
2024/01/28 19:00:52;;;;;;;5.40;2.53;;;;;;;12.42;100.00;101245.72;5028901;28;20561;-48
2024/01/28 19:03:17;;;;;;;6.35;2.30;;;;;;;12.19;100.00;101239.66;5045330;28;20458;-48
2024/01/28 19:05:43;;;;;;;3.42;0.95;;;;;;;12.30;100.00;101246.34;5038911;28;20025;-49
2024/01/28 19:08:11;;;;;;;9.75;2.28;;;;;;;12.36;100.00;101243.78;5043949;28;20034;-51
2024/01/28 19:10:36;;;;;;;2.90;1.45;;;;;;;12.49;100.00;101247.63;5036923;28;20050;-50
2024/01/28 19:13:02;;;;;;;9.88;2.00;;;;;;;12.56;100.00;101248.53;5039746;28;20047;-46
2024/01/28 19:15:28;;;;;;;3.58;1.77;;;;;;;12.66;100.00;101255.22;5038233;28;20030;-47
2024/01/28 19:17:56;;;;;;;3.38;2.45;;;;;;;12.66;100.00;101251.75;5028005;28;21771;-44
2024/01/28 19:20:23;;;;;;;3.05;1.58;;;;;;;12.66;100.00;101252.56;5033058;28;21049;-46
2024/01/28 19:22:48;;;;;;;8.18;2.25;;;;;;;12.74;100.00;101256.94;5029366;28;20104;-46
2024/01/28 19:25:16;;;;;;;4.80;1.65;;;;;;;12.78;100.00;101260.09;5021285;28;20103;-45
2024/01/28 19:27:42;;;;;;;14.32;2.10;;;;;;;12.75;100.00;101244.47;5022800;28;20041;-49
2024/01/28 19:30:08;;;;;;;2.47;1.85;;;;;;;12.69;100.00;101248.69;5021102;28;20032;-45
2024/01/28 19:32:33;;;;;;;4.88;1.58;;;;;;;12.71;100.00;101245.88;5014015;28;20457;-49
2024/01/28 19:34:58;;;;;;;3.58;1.88;;;;;;;12.85;100.00;101240.50;5016588;28;20557;-51
2024/01/28 19:37:24;;;;;;;3.90;1.73;;;;;;;12.89;100.00;101232.97;5019580;28;20091;-47
2024/01/28 19:39:49;;;;;;;7.53;1.85;;;;;;;12.84;100.00;101241.50;5026442;28;20033;-47
2024/01/28 19:42:14;;;;;;;12.68;3.95;;;;;;;12.81;100.00;101244.56;5021780;28;20130;-49
2024/01/28 19:44:40;;;;;;;2.58;2.00;;;;;;;12.87;100.00;101249.13;5020086;28;20030;-49
2024/01/28 19:47:05;;;;;;;8.02;2.40;;;;;;;12.62;100.00;101253.09;5027819;28;20182;-50
2024/01/28 19:49:31;;;;;;;13.73;2.28;;;;;;;12.66;100.00;101254.41;5031762;28;20196;-50
2024/01/28 19:51:56;;;;;;;5.95;2.67;;;;;;;12.77;100.00;101251.25;5030584;28;20557;-45
2024/01/28 19:54:22;;;;;;;3.30;1.73;;;;;;;12.75;100.00;101247.97;5030417;28;20481;-45
2024/01/28 19:56:47;;;;;;;7.18;3.20;;;;;;;12.76;100.00;101246.94;5025679;28;20036;-49
2024/01/28 19:59:13;;;;;;;7.55;1.83;;;;;;;12.95;100.00;101244.69;5002030;28;20055;-47
2024/01/28 20:01:39;;;;;;;4.47;3.15;;;;;;;12.97;100.00;101248.00;5015839;28;20030;-46
2024/01/28 20:04:04;;;;;;;6.20;2.33;;;;;;;12.93;100.00;101254.72;4998994;28;20104;-44
2024/01/28 20:06:30;;;;;;;5.28;4.47;;;;;;;12.97;100.00;101258.66;5019030;28;20031;-44
2024/01/28 20:08:55;;;;;;;4.25;2.28;;;;;;;13.01;100.00;101271.41;5025314;28;20441;-47
2024/01/28 20:11:20;;;;;;;9.50;3.65;;;;;;;12.99;100.00;101269.94;4994109;28;21131;-48
2024/01/28 20:13:46;;;;;;;7.85;4.05;;;;;;;13.03;100.00;101269.34;5015908;28;20030;-49
2024/01/28 20:16:11;;;;;;;12.63;3.40;;;;;;;13.17;100.00;101274.84;5027120;28;20538;-46
2024/01/28 20:18:37;;;;;;;7.32;3.65;;;;;;;13.23;100.00;101277.56;5021664;28;20033;-47
2024/01/28 20:21:02;;;;;;;6.13;3.30;;;;;;;13.25;100.00;101278.22;5023996;28;20061;-45
2024/01/28 20:23:28;;;;;;;8.55;3.83;;;;;;;13.28;100.00;101269.06;5025226;28;20025;-45
2024/01/28 20:25:54;;;;;;;11.07;3.55;;;;;;;13.21;100.00;101273.44;5019011;28;20370;-45
2024/01/28 20:28:21;;;;;;;9.68;3.60;;;;;;;13.36;100.00;101279.56;5026873;28;20044;-45
2024/01/28 20:30:46;;;;;;;6.85;2.97;;;;;;;13.42;100.00;101280.66;5022138;28;20498;-45
2024/01/28 20:33:12;;;;;;;11.23;4.00;;;;;;;13.38;100.00;101282.06;5028088;28;20033;-47
2024/01/28 20:35:37;;;;;;;6.93;3.47;;;;;;;13.38;100.00;101276.72;5023300;28;20036;-44
2024/01/28 20:38:03;;;;;;;9.32;2.75;;;;;;;13.37;100.00;101275.06;5026649;28;20033;-48
2024/01/28 20:40:28;;;;;;;7.35;3.28;;;;;;;13.46;100.00;101276.59;5024554;28;20680;-45
2024/01/28 20:42:53;;;;;;;6.55;2.85;;;;;;;13.48;100.00;101277.25;5028084;28;20025;-47
2024/01/28 20:45:19;;;;;;;4.93;2.55;;;;;;;13.41;100.00;101279.00;5026969;28;20029;-47
2024/01/28 20:47:45;;;;;;;6.13;3.42;;;;;;;13.31;100.00;101287.31;5027301;28;20025;-46
2024/01/28 20:50:10;;;;;;;9.50;4.03;;;;;;;13.34;100.00;101286.09;5023656;28;20560;-46
2024/01/28 20:52:36;;;;;;;6.05;3.30;;;;;;;13.38;100.00;101284.72;5022259;28;20033;-48
2024/01/28 20:55:02;;;;;;;7.53;3.20;;;;;;;13.11;100.00;101289.72;5025074;28;20202;-47
2024/01/28 20:57:27;;;;;;;10.77;4.40;;;;;;;13.04;100.00;101295.00;4993950;28;20033;-45
2024/01/28 20:59:53;;;;;;;5.85;3.30;;;;;;;13.06;100.00;101290.31;5012461;28;20487;-47
2024/01/28 21:02:18;;;;;;;9.80;3.47;;;;;;;12.99;100.00;101304.56;5014866;28;20677;-47
2024/01/28 21:04:44;;;;;;;12.57;5.85;;;;;;;12.97;100.00;101304.72;5020054;28;20107;-47
2024/01/28 21:07:09;;;;;;;16.48;5.38;;;;;;;12.96;100.00;101302.25;5015966;28;20036;-44
2024/01/28 21:09:34;;;;;;;11.07;5.40;;;;;;;12.98;100.00;101305.53;5026366;28;20021;-48
2024/01/28 21:12:00;;;;;;;9.77;5.13;;;;;;;13.00;100.00;101303.53;5018870;28;20045;-47
2024/01/28 21:14:25;;;;;;;11.27;4.20;;;;;;;12.96;100.00;101299.56;5024781;28;20036;-49
2024/01/28 21:16:50;;;;;;;13.77;4.22;;;;;;;13.00;100.00;101311.50;5018606;28;20033;-45
2024/01/28 21:19:16;;;;;;;11.68;4.38;;;;;;;12.95;100.00;101297.94;5015936;28;20041;-47
2024/01/28 21:21:42;;;;;;;10.13;3.75;;;;;;;13.02;100.00;101312.16;5023936;28;20377;-51
2024/01/28 21:24:09;;;;;;;8.82;2.58;;;;;;;12.89;100.00;101307.50;5019118;28;20029;-48
2024/01/28 21:26:35;;;;;;;5.32;3.00;;;;;;;12.85;100.00;101314.19;5014584;28;20795;-47
2024/01/28 21:29:03;;;;;;;18.23;3.67;;;;;;;13.01;100.00;101318.47;5017281;28;20041;-50
2024/01/28 21:31:28;;;;;;;5.63;2.78;;;;;;;13.01;100.00;101319.31;5006633;28;20296;-48
2024/01/28 21:33:53;;;;;;;16.38;2.47;;;;;;;13.03;100.00;101319.13;5005044;28;21020;-47
2024/01/28 21:36:19;;;;;;;3.33;1.60;;;;;;;13.06;100.00;101316.06;5025244;28;20531;-46
2024/01/28 21:38:44;;;;;;;7.50;2.90;;;;;;;13.17;100.00;101315.63;5021217;28;20636;-47
2024/01/28 21:41:09;;;;;;;23.33;5.57;;;;;;;13.13;100.00;101319.66;5023300;28;20164;-50
2024/01/28 21:43:35;;;;;;;11.70;4.07;;;;;;;13.13;100.00;101319.66;5026979;28;20478;-45
2024/01/28 21:46:00;;;;;;;5.97;2.95;;;;;;;13.14;100.00;101318.66;5017941;28;20033;-46
2024/01/28 21:48:25;;;;;;;10.18;3.78;;;;;;;13.06;100.00;101322.25;5026876;28;20033;-47
2024/01/28 21:50:51;;;;;;;14.80;3.20;;;;;;;13.19;100.00;101315.41;5021263;28;20393;-48
2024/01/28 21:53:17;;;;;;;6.35;2.40;;;;;;;13.23;100.00;101328.16;5020193;28;20032;-47
2024/01/28 21:55:43;;;;;;;13.10;3.15;;;;;;;13.24;100.00;101327.16;5023780;28;20114;-47
2024/01/28 21:58:08;;;;;;;9.55;3.78;;;;;;;13.21;100.00;101324.84;5022120;28;20110;-46
2024/01/28 22:00:34;;;;;;;5.72;2.67;;;;;;;13.37;100.00;101333.66;5024340;28;20044;-49
2024/01/28 22:02:59;;;;;;;7.03;3.25;;;;;;;13.33;100.00;101343.06;5024133;28;20543;-47
2024/01/28 22:05:25;;;;;;;5.82;2.88;;;;;;;13.34;100.00;101344.69;5021099;28;20182;-51
2024/01/28 22:07:50;;;;;;;11.27;3.75;;;;;;;13.31;100.00;101346.72;5024889;28;20156;-46
2024/01/28 22:10:16;;;;;;;10.02;5.38;;;;;;;13.43;100.00;101352.41;5022562;28;20401;-45
2024/01/28 22:12:41;;;;;;;9.57;3.70;;;;;;;13.43;100.00;101344.41;5020638;28;20059;-49
2024/01/28 22:15:07;;;;;;;8.57;3.22;;;;;;;13.45;100.00;101353.03;5020506;28;20510;-49
2024/01/28 22:17:34;;;;;;;11.07;3.35;;;;;;;13.44;100.00;101350.56;5024164;28;20103;-48
2024/01/28 22:20:00;;;;;;;7.05;3.60;;;;;;;13.43;100.00;101344.41;5023137;28;20052;-48
2024/01/28 22:22:26;;;;;;;11.90;3.90;;;;;;;13.39;100.00;101348.44;5020015;28;20405;-47
2024/01/28 22:24:51;;;;;;;9.07;4.40;;;;;;;13.39;100.00;101336.97;5021895;28;20091;-48
2024/01/28 22:27:17;;;;;;;11.27;3.85;;;;;;;13.47;100.00;101352.84;5015755;28;20520;-47
2024/01/28 22:29:42;;;;;;;23.83;5.50;;;;;;;13.48;100.00;101349.19;5014146;28;20183;-49
2024/01/28 22:32:07;;;;;;;16.80;5.80;;;;;;;13.37;100.00;101349.66;5024978;28;20056;-48
2024/01/28 22:34:33;;;;;;;12.13;5.05;;;;;;;13.40;100.00;101351.94;5021692;28;20382;-45
2024/01/28 22:36:58;;;;;;;21.73;6.68;;;;;;;13.43;100.00;101356.91;5016198;28;20033;-47
2024/01/28 22:39:23;;;;;;;16.85;4.88;;;;;;;13.43;100.00;101359.56;5019465;28;20108;-46
2024/01/28 22:41:49;;;;;;;18.48;5.22;;;;;;;13.48;100.00;101362.50;4992371;28;20034;-46
2024/01/28 22:44:15;;;;;;;16.48;5.97;;;;;;;13.51;100.00;101354.94;5026627;28;20041;-49
2024/01/28 22:46:40;;;;;;;12.57;4.70;;;;;;;13.44;100.00;101348.72;5021309;28;20509;-48
2024/01/28 22:49:06;;;;;;;13.25;6.70;;;;;;;13.47;100.00;101358.16;5013586;28;20053;-46
2024/01/28 22:51:32;;;;;;;18.20;6.90;;;;;;;13.20;100.00;101343.69;5017442;28;20082;-50
2024/01/28 22:53:57;;;;;;;14.18;4.50;;;;;;;13.09;100.00;101358.34;5022540;28;20025;-47
2024/01/28 22:56:22;;;;;;;9.55;4.05;;;;;;;13.06;100.00;101358.69;5016377;28;20221;-44
2024/01/28 22:58:49;;;;;;;12.07;5.20;;;;;;;13.12;100.00;101360.63;5013145;28;20496;-45
2024/01/28 23:01:14;;;;;;;14.07;5.03;;;;;;;13.04;100.00;101355.41;5026426;28;20045;-49
2024/01/28 23:03:40;;;;;;;11.75;5.07;;;;;;;12.98;100.00;101348.13;5031919;28;20028;-47
2024/01/28 23:06:09;;;;;;;12.20;5.15;;;;;;;12.91;100.00;101345.41;5029893;28;20032;-49
2024/01/28 23:08:35;;;;;;;15.15;5.70;;;;;;;13.10;100.00;101344.81;5034120;28;20032;-46
2024/01/28 23:11:01;;;;;;;26.15;5.65;;;;;;;13.05;100.00;101339.22;5027798;28;20048;-47
2024/01/28 23:13:26;;;;;;;13.65;6.22;;;;;;;12.97;100.00;101344.66;5026248;28;20044;-45
2024/01/28 23:15:51;;;;;;;16.58;6.22;;;;;;;13.01;100.00;101345.09;5022215;28;20032;-49
2024/01/28 23:18:17;;;;;;;18.23;6.70;;;;;;;13.08;100.00;101348.66;5019715;28;20040;-46
2024/01/28 23:20:42;;;;;;;11.85;4.45;;;;;;;13.05;100.00;101347.22;5008898;28;20029;-47
2024/01/28 23:23:07;;;;;;;16.42;6.72;;;;;;;13.12;100.00;101352.63;5014688;28;20384;-46
2024/01/28 23:25:33;;;;;;;19.65;6.15;;;;;;;13.22;100.00;101352.34;5014134;28;20021;-46
2024/01/28 23:28:02;;;;;;;16.65;8.30;;;;;;;13.35;100.00;101349.84;5013728;28;20490;-50
2024/01/28 23:30:27;;;;;;;11.30;5.57;;;;;;;13.33;100.00;101349.22;5008053;28;20041;-46
2024/01/28 23:32:52;;;;;;;17.48;6.70;;;;;;;13.30;100.00;101347.75;5019550;28;20120;-46
2024/01/28 23:35:18;;;;;;;13.52;6.30;;;;;;;13.36;100.00;101351.50;5013554;28;20029;-47
2024/01/28 23:37:43;;;;;;;21.35;7.50;;;;;;;13.35;100.00;101351.69;5019840;28;20079;-47
2024/01/28 23:40:10;;;;;;;21.02;7.22;;;;;;;13.20;100.00;101357.03;5021152;28;20029;-48
2024/01/28 23:42:37;;;;;;;17.88;7.07;;;;;;;13.24;100.00;101353.81;5016539;28;20032;-46
2024/01/28 23:45:03;;;;;;;16.88;6.63;;;;;;;13.20;100.00;101357.03;5012766;28;20045;-47
2024/01/28 23:47:29;;;;;;;21.17;7.85;;;;;;;13.13;100.00;101359.59;5021015;28;20382;-47
2024/01/28 23:49:54;;;;;;;16.90;8.57;;;;;;;13.23;100.00;101357.47;4996534;28;20362;-43
2024/01/28 23:52:19;;;;;;;10.82;5.50;;;;;;;13.19;100.00;101353.53;5014284;28;20380;-44
2024/01/28 23:54:45;;;;;;;21.45;6.55;;;;;;;13.19;100.00;101353.53;5021217;28;20033;-45
2024/01/28 23:57:10;;;;;;;18.55;6.60;;;;;;;13.20;100.00;101357.03;5010789;28;20192;-45
2024/01/28 23:59:36;;;;;;;16.85;6.15;;;;;;;13.19;100.00;101360.69;5018469;28;20142;-48
